Time,TemperatureF,DewpointF,PressureIn,WindDirection,WindDirectionDegrees,WindSpeedMPH,WindSpeedGustMPH,Humidity,HourlyPrecipIn,Conditions,Clouds,dailyrainin,SoftwareType,DateUTC
2013-08-16 00:04:00,60.2,57.0,30.13,SW,216,0.0,0.0,90,0.00,,,0.00,weatherlink.com 1.10,2013-08-16 04:04:00,
2013-08-16 00:19:00,59.7,57.0,30.12,SW,216,0.0,0.0,90,0.00,,,0.00,weatherlink.com 1.10,2013-08-16 04:19:00,
2013-08-16 00:34:00,59.5,57.0,30.12,SW,216,0.0,0.0,90,0.00,,,0.00,weatherlink.com 1.10,2013-08-16 04:34:00,
2013-08-16 00:49:00,59.5,57.0,30.12,SW,216,0.0,0.0,91,0.00,,,0.00,weatherlink.com 1.10,2013-08-16 04:49:00,
2013-08-16 01:04:00,59.7,57.0,30.12,SW,216,0.0,0.0,91,0.00,,,0.00,weatherlink.com 1.10,2013-08-16 05:04:00,
2013-08-16 01:34:00,59.8,58.0,30.12,SW,216,0.0,0.0,92,0.00,,,0.00,weatherlink.com 1.10,2013-08-16 05:34:00,
2013-08-16 01:49:00,59.8,57.0,30.12,SW,216,0.0,0.0,91,0.00,,,0.00,weatherlink.com 1.10,2013-08-16 05:49:00,
2013-08-16 02:04:00,59.7,57.0,30.12,SW,216,0.0,0.0,90,0.00,,,0.00,weatherlink.com 1.10,2013-08-16 06:04:00,
2013-08-16 02:19:00,59.6,57.0,30.12,SW,216,0.0,0.0,91,0.00,,,0.00,weatherlink.com 1.10,2013-08-16 06:19:00,
2013-08-16 02:34:00,59.6,57.0,30.12,SW,216,0.0,0.0,91,0.00,,,0.00,weatherlink.com 1.10,2013-08-16 06:34:00,
2013-08-16 02:49:00,59.8,58.0,30.13,SW,216,0.0,0.0,92,0.00,,,0.00,weatherlink.com 1.10,2013-08-16 06:49:00,
2013-08-16 03:04:00,59.7,57.0,30.13,SW,216,0.0,0.0,91,0.00,,,0.00,weatherlink.com 1.10,2013-08-16 07:04:00,
2013-08-16 03:19:00,60.0,57.0,30.13,SW,216,0.0,0.0,90,0.00,,,0.00,weatherlink.com 1.10,2013-08-16 07:19:00,
2013-08-16 03:34:00,60.2,57.0,30.13,SW,216,0.0,0.0,88,0.00,,,0.00,weatherlink.com 1.10,2013-08-16 07:34:00,
2013-08-16 03:49:00,60.2,57.0,30.12,SW,216,0.0,0.0,89,0.00,,,0.00,weatherlink.com 1.10,2013-08-16 07:49:00,
2013-08-16 04:04:00,60.0,57.0,30.12,SW,216,0.0,0.0,88,0.00,,,0.00,weatherlink.com 1.10,2013-08-16 08:04:00,
2013-08-16 04:19:00,59.9,57.0,30.12,SW,216,0.0,0.0,89,0.00,,,0.00,weatherlink.com 1.10,2013-08-16 08:19:00,
2013-08-16 04:34:00,59.8,57.0,30.12,SW,216,0.0,0.0,89,0.00,,,0.00,weatherlink.com 1.10,2013-08-16 08:34:00,
2013-08-16 04:49:00,59.5,57.0,30.12,West,267,0.0,0.0,90,0.00,,,0.00,weatherlink.com 1.10,2013-08-16 08:49:00,
2013-08-16 05:04:00,59.2,57.0,30.12,WNW,287,0.0,2.0,91,0.00,,,0.00,weatherlink.com 1.10,2013-08-16 09:04:00,
2013-08-16 05:19:00,58.9,57.0,30.12,North,355,0.0,1.0,92,0.00,,,0.00,weatherlink.com 1.10,2013-08-16 09:19:00,
2013-08-16 05:34:00,58.4,56.0,30.12,WNW,298,0.0,2.0,93,0.00,,,0.00,weatherlink.com 1.10,2013-08-16 09:34:00,
2013-08-16 05:49:00,58.5,57.0,30.12,NNE,18,0.0,2.0,93,0.00,,,0.00,weatherlink.com 1.10,2013-08-16 09:49:00,
2013-08-16 06:04:00,58.1,56.0,30.13,NNE,18,0.0,0.0,93,0.00,,,0.00,weatherlink.com 1.10,2013-08-16 10:04:00,
2013-08-16 06:19:00,57.9,56.0,30.13,NNE,18,0.0,0.0,94,0.00,,,0.00,weatherlink.com 1.10,2013-08-16 10:19:00,
2013-08-16 06:34:00,58.1,56.0,30.13,NNW,332,0.0,1.0,93,0.00,,,0.00,weatherlink.com 1.10,2013-08-16 10:34:00,
2013-08-16 06:49:00,57.8,56.0,30.14,NNW,332,0.0,0.0,93,0.00,,,0.00,weatherlink.com 1.10,2013-08-16 10:49:00,
2013-08-16 07:04:00,57.8,56.0,30.13,NNW,333,0.0,2.0,94,0.00,,,0.00,weatherlink.com 1.10,2013-08-16 11:04:00,
2013-08-16 07:19:00,58.1,56.0,30.13,North,10,0.0,0.0,94,0.00,,,0.00,weatherlink.com 1.10,2013-08-16 11:19:00,
2013-08-16 07:34:00,57.9,56.0,30.13,North,5,0.0,0.0,94,0.00,,,0.00,weatherlink.com 1.10,2013-08-16 11:34:00,
2013-08-16 07:49:00,57.9,56.0,30.14,North,9,0.0,0.0,94,0.00,,,0.00,weatherlink.com 1.10,2013-08-16 11:49:00,
2013-08-16 08:04:00,58.5,57.0,30.14,ENE,67,0.0,1.0,95,0.00,,,0.00,weatherlink.com 1.10,2013-08-16 12:04:00,
2013-08-16 08:19:00,59.1,57.0,30.14,ENE,60,0.0,1.0,93,0.00,,,0.00,weatherlink.com 1.10,2013-08-16 12:19:00,
2013-08-16 08:34:00,59.5,57.0,30.15,NE,51,0.0,0.0,92,0.00,,,0.00,weatherlink.com 1.10,2013-08-16 12:34:00,
2013-08-16 08:49:00,60.2,57.0,30.16,NE,51,0.0,3.0,90,0.00,,,0.00,weatherlink.com 1.10,2013-08-16 12:49:00,
2013-08-16 09:05:00,61.3,58.0,30.16,NE,43,1.0,2.0,89,0.00,,,0.00,weatherlink.com 1.10,2013-08-16 13:05:00,
2013-08-16 09:20:00,62.4,59.0,30.16,NE,42,1.0,2.0,88,0.00,,,0.00,weatherlink.com 1.10,2013-08-16 13:20:00,
2013-08-16 09:35:00,63.1,59.0,30.16,ENE,65,0.0,2.0,86,0.00,,,0.00,weatherlink.com 1.10,2013-08-16 13:35:00,
2013-08-16 09:50:00,63.7,60.0,30.16,NE,52,0.0,2.0,86,0.00,,,0.00,weatherlink.com 1.10,2013-08-16 13:50:00,
2013-08-16 10:05:00,64.0,60.0,30.16,NE,52,0.0,0.0,88,0.00,,,0.00,weatherlink.com 1.10,2013-08-16 14:05:00,
2013-08-16 10:20:00,64.2,60.0,30.16,NNE,19,0.0,1.0,86,0.00,,,0.00,weatherlink.com 1.10,2013-08-16 14:20:00,
2013-08-16 10:35:00,65.3,60.0,30.16,ENE,67,0.0,1.0,84,0.00,,,0.00,weatherlink.com 1.10,2013-08-16 14:35:00,
2013-08-16 10:50:00,66.6,61.0,30.17,NE,46,0.0,1.0,81,0.00,,,0.00,weatherlink.com 1.10,2013-08-16 14:50:00,
2013-08-16 11:05:00,67.5,59.0,30.17,ENE,76,0.0,3.0,74,0.00,,,0.00,weatherlink.com 1.10,2013-08-16 15:05:00,
2013-08-16 11:20:00,68.5,60.0,30.16,East,82,1.0,2.0,73,0.00,,,0.00,weatherlink.com 1.10,2013-08-16 15:20:00,
2013-08-16 11:35:00,69.5,61.0,30.16,ENE,74,1.0,4.0,73,0.00,,,0.00,weatherlink.com 1.10,2013-08-16 15:35:00,
2013-08-16 11:50:00,71.1,60.0,30.17,SSW,211,2.0,3.0,68,0.00,,,0.00,weatherlink.com 1.10,2013-08-16 15:50:00,
2013-08-16 12:05:00,72.3,62.0,30.16,ENE,67,0.0,3.0,69,0.00,,,0.00,weatherlink.com 1.10,2013-08-16 16:05:00,
2013-08-16 12:20:00,74.1,61.0,30.16,ENE,76,0.0,3.0,63,0.00,,,0.00,weatherlink.com 1.10,2013-08-16 16:20:00,
2013-08-16 12:35:00,74.2,60.0,30.16,SSE,164,0.0,4.0,61,0.00,,,0.00,weatherlink.com 1.10,2013-08-16 16:35:00,
2013-08-16 12:50:00,73.6,63.0,30.16,North,5,1.0,3.0,69,0.00,,,0.00,weatherlink.com 1.10,2013-08-16 16:50:00,
2013-08-16 13:05:00,74.4,59.0,30.16,NNE,13,2.0,2.0,59,0.00,,,0.00,weatherlink.com 1.10,2013-08-16 17:05:00,
2013-08-16 13:20:00,73.8,60.0,30.16,NE,55,0.0,1.0,62,0.00,,,0.00,weatherlink.com 1.10,2013-08-16 17:20:00,
2013-08-16 13:35:00,75.4,58.0,30.16,ENE,70,0.0,4.0,55,0.00,,,0.00,weatherlink.com 1.10,2013-08-16 17:35:00,
2013-08-16 13:50:00,76.7,59.0,30.15,NE,38,0.0,3.0,55,0.00,,,0.00,weatherlink.com 1.10,2013-08-16 17:50:00,
2013-08-16 14:05:00,75.5,56.0,30.15,NE,42,1.0,2.0,51,0.00,,,0.00,weatherlink.com 1.10,2013-08-16 18:05:00,
2013-08-16 14:21:00,74.8,63.0,30.15,East,84,0.0,2.0,67,0.00,,,0.00,weatherlink.com 1.10,2013-08-16 18:21:00,
2013-08-16 14:35:00,76.1,59.0,30.15,North,355,2.0,3.0,55,0.00,,,0.00,weatherlink.com 1.10,2013-08-16 18:35:00,
2013-08-16 14:50:00,76.5,58.0,30.15,NNE,27,0.0,3.0,53,0.00,,,0.00,weatherlink.com 1.10,2013-08-16 18:50:00,
2013-08-16 15:05:00,76.7,63.0,30.14,ESE,118,0.0,2.0,63,0.00,,,0.00,weatherlink.com 1.10,2013-08-16 19:05:00,
2013-08-16 15:20:00,79.4,61.0,30.15,NE,51,0.0,3.0,53,0.00,,,0.00,weatherlink.com 1.10,2013-08-16 19:20:00,
2013-08-16 15:35:00,76.7,58.0,30.14,NE,41,0.0,2.0,53,0.00,,,0.00,weatherlink.com 1.10,2013-08-16 19:35:00,
2013-08-16 15:50:00,75.7,58.0,30.14,NE,44,0.0,2.0,55,0.00,,,0.00,weatherlink.com 1.10,2013-08-16 19:50:00,
2013-08-16 16:05:00,77.1,62.0,30.14,ENE,72,0.0,2.0,60,0.00,,,0.00,weatherlink.com 1.10,2013-08-16 20:05:00,
2013-08-16 16:21:00,78.4,62.0,30.14,SE,143,1.0,3.0,58,0.00,,,0.00,weatherlink.com 1.10,2013-08-16 20:21:00,
2013-08-16 16:36:00,77.4,60.0,30.14,ENE,74,1.0,2.0,55,0.00,,,0.00,weatherlink.com 1.10,2013-08-16 20:36:00,
2013-08-16 16:51:00,77.3,64.0,30.14,ENE,74,0.0,2.0,63,0.00,,,0.00,weatherlink.com 1.10,2013-08-16 20:51:00,
2013-08-16 17:06:00,77.4,61.0,30.14,SE,133,0.0,4.0,57,0.00,,,0.00,weatherlink.com 1.10,2013-08-16 21:06:00,
2013-08-16 17:21:00,77.6,62.0,30.14,SW,219,2.0,3.0,59,0.00,,,0.00,weatherlink.com 1.10,2013-08-16 21:21:00,
2013-08-16 17:36:00,75.2,63.0,30.14,SSE,165,0.0,1.0,66,0.00,,,0.00,weatherlink.com 1.10,2013-08-16 21:36:00,
2013-08-16 17:51:00,73.9,61.0,30.14,SSE,147,0.0,2.0,65,0.00,,,0.00,weatherlink.com 1.10,2013-08-16 21:51:00,
2013-08-16 18:06:00,73.8,61.0,30.14,NE,34,0.0,1.0,65,0.00,,,0.00,weatherlink.com 1.10,2013-08-16 22:06:00,
2013-08-16 18:21:00,73.5,62.0,30.14,NE,34,0.0,0.0,68,0.00,,,0.00,weatherlink.com 1.10,2013-08-16 22:21:00,
2013-08-16 18:36:00,72.3,63.0,30.14,NE,34,0.0,1.0,72,0.00,,,0.00,weatherlink.com 1.10,2013-08-16 22:36:00,
2013-08-16 18:51:00,71.6,61.0,30.14,NE,34,0.0,0.0,69,0.00,,,0.00,weatherlink.com 1.10,2013-08-16 22:51:00,
2013-08-16 19:06:00,71.4,61.0,30.13,East,82,0.0,0.0,70,0.00,,,0.00,weatherlink.com 1.10,2013-08-16 23:06:00,
2013-08-16 19:21:00,70.9,61.0,30.14,East,82,0.0,0.0,71,0.00,,,0.00,weatherlink.com 1.10,2013-08-16 23:21:00,
2013-08-16 19:36:00,69.6,60.0,30.14,East,82,0.0,0.0,72,0.00,,,0.00,weatherlink.com 1.10,2013-08-16 23:36:00,
2013-08-16 19:51:00,68.7,62.0,30.14,East,82,0.0,0.0,79,0.00,,,0.00,weatherlink.com 1.10,2013-08-16 23:51:00,
2013-08-16 20:06:00,67.5,60.0,30.14,East,82,0.0,0.0,78,0.00,,,0.00,weatherlink.com 1.10,2013-08-17 00:06:00,
2013-08-16 20:21:00,66.8,59.0,30.14,East,82,0.0,0.0,76,0.00,,,0.00,weatherlink.com 1.10,2013-08-17 00:21:00,
2013-08-16 20:36:00,66.3,60.0,30.14,East,82,0.0,0.0,79,0.00,,,0.00,weatherlink.com 1.10,2013-08-17 00:36:00,
2013-08-16 20:51:00,65.6,60.0,30.15,East,82,0.0,0.0,82,0.00,,,0.00,weatherlink.com 1.10,2013-08-17 00:51:00,
2013-08-16 21:06:00,64.9,60.0,30.15,East,82,0.0,0.0,84,0.00,,,0.00,weatherlink.com 1.10,2013-08-17 01:06:00,
2013-08-16 21:21:00,64.1,59.0,30.16,East,82,0.0,0.0,84,0.00,,,0.00,weatherlink.com 1.10,2013-08-17 01:21:00,
2013-08-16 21:36:00,63.6,59.0,30.16,East,82,0.0,0.0,84,0.00,,,0.00,weatherlink.com 1.10,2013-08-17 01:36:00,
2013-08-16 21:51:00,63.6,59.0,30.16,East,82,0.0,0.0,86,0.00,,,0.00,weatherlink.com 1.10,2013-08-17 01:51:00,
2013-08-16 22:06:00,63.5,60.0,30.17,East,82,0.0,0.0,87,0.00,,,0.00,weatherlink.com 1.10,2013-08-17 02:06:00,
2013-08-16 22:21:00,63.5,61.0,30.17,East,82,0.0,0.0,91,0.00,,,0.00,weatherlink.com 1.10,2013-08-17 02:21:00,
2013-08-16 22:36:00,63.2,60.0,30.17,East,82,0.0,0.0,90,0.00,,,0.00,weatherlink.com 1.10,2013-08-17 02:36:00,
2013-08-16 22:51:00,62.7,60.0,30.17,East,82,0.0,0.0,91,0.00,,,0.00,weatherlink.com 1.10,2013-08-17 02:51:00,
2013-08-16 23:06:00,62.2,60.0,30.17,East,82,0.0,0.0,91,0.00,,,0.00,weatherlink.com 1.10,2013-08-17 03:06:00,
2013-08-16 23:21:00,61.7,59.0,30.17,East,82,0.0,0.0,92,0.00,,,0.00,weatherlink.com 1.10,2013-08-17 03:21:00,
2013-08-16 23:36:00,61.4,59.0,30.17,East,82,0.0,0.0,93,0.00,,,0.00,weatherlink.com 1.10,2013-08-17 03:36:00,
2013-08-16 23:51:00,61.1,59.0,30.18,East,82,0.0,0.0,94,0.00,,,0.00,weatherlink.com 1.10,2013-08-17 03:51:00,